^^
Station Historical Data
Daily Summary for February 9, 2018 Units:  Metric    English   Both
« Previous Day
Next Day »
Daily Weekly Monthly Yearly Custom
  High: Low: Average:
Temperature: -17.8 °C 15.9 °C 19.6 °C
Dew Point: -17.8 °C 11.8 °C 14.7 °C
Humidity: Humidity% 36% 77%
Wind Speed: 0km/h 0km/h 2.3km/h
Wind Gust: 0km/h - -
Wind- - SE
Pressure: 0 hPa 1003.3 hPa -
Precipitation: 14.22 mm    
Historical Graphs
 
 
Tabular Data for February 9, 2018
Time Temperature Dew Point Pressure Wind Wind Speed Wind Gust Humidity Rainfall Rate (Hourly) solar Conditions
-17.8 °C -17.8 °C 0 hPa Calm     Humidity% 0 mm SolarRadiationWatts/m^2 W/m2 Conditions
00:01 19.7 °C 15.8 °C 1004.6 hPa Calm   1.6 km/h 78% 0 mm 0.0 W/m2
00:06 19.6 °C 15.7 °C 1005 hPa Calm     78% 0 mm 0.0 W/m2
00:12 19.4 °C 15.5 °C 1005 hPa Calm     78% 0 mm 0.0 W/m2
00:17 19.4 °C 15.7 °C 1005 hPa Calm   1.6 km/h 79% 0 mm 0.0 W/m2
00:22 19.3 °C 15.8 °C 1005 hPa Calm   1.6 km/h 80% 0 mm 0.0 W/m2
00:27 19.2 °C 15.7 °C 1004.6 hPa Calm   1.6 km/h 80% 0 mm 0.0 W/m2
00:32 19.1 °C 15.8 °C 1004.6 hPa Calm   1.6 km/h 81% 0 mm 0.0 W/m2
00:37 19.1 °C 15.8 °C 1004.6 hPa East 1.4 km/h 4.8 km/h 81% 0 mm 0.0 W/m2
00:42 19.1 °C 15.8 °C 1004.6 hPa Calm   1.6 km/h 81% 0 mm 0.0 W/m2
00:47 19 °C 15.7 °C 1004.6 hPa Calm     81% 0 mm 0.0 W/m2
00:53 18.9 °C 15.8 °C 1004.6 hPa Calm   1.6 km/h 82% 0 mm 0.0 W/m2
00:58 18.9 °C 15.8 °C 1004.6 hPa Calm     82% 0 mm 0.0 W/m2
01:03 18.8 °C 15.7 °C 1004.6 hPa Calm     82% 0 mm 0.0 W/m2
01:08 18.8 °C 15.7 °C 1004.6 hPa Calm     82% 0 mm 0.0 W/m2
01:13 18.7 °C 15.6 °C 1004.6 hPa Calm   3.2 km/h 82% 0 mm 0.0 W/m2
01:18 18.7 °C 15.6 °C 1004.6 hPa ENE 1.4 km/h 4.8 km/h 82% 0 mm 0.0 W/m2
01:23 18.7 °C 15.6 °C 1004.3 hPa Calm   1.6 km/h 82% 0 mm 0.0 W/m2
01:28 18.7 °C 15.6 °C 1004.3 hPa Calm     82% 0 mm 0.0 W/m2
01:33 18.7 °C 15.6 °C 1004.3 hPa Calm   1.6 km/h 82% 0 mm 0.0 W/m2
01:39 18.8 °C 15.7 °C 1004.3 hPa Calm   4.8 km/h 82% 0 mm 0.0 W/m2
01:44 18.8 °C 15.5 °C 1004.6 hPa NE 3.2 km/h 4.8 km/h 81% 0 mm 0.0 W/m2
01:49 18.8 °C 15.7 °C 1004.6 hPa NE 4.7 km/h 11.3 km/h 82% 0 mm 0.0 W/m2
01:54 18.8 °C 15.9 °C 1004.3 hPa Calm   4.8 km/h 83% 0 mm 0.0 W/m2
01:59 18.8 °C 15.9 °C 1004.3 hPa Calm   3.2 km/h 83% 0 mm 0.0 W/m2
02:04 18.8 °C 15.9 °C 1004.3 hPa Calm   4.8 km/h 83% 0 mm 0.0 W/m2
02:09 18.8 °C 15.7 °C 1004.6 hPa Calm   1.6 km/h 82% 0 mm 0.0 W/m2
02:14 18.8 °C 15.3 °C 1004.6 hPa SSE 1.4 km/h 3.2 km/h 80% 0 mm 0.0 W/m2
02:19 18.9 °C 15 °C 1004.6 hPa SE 1.4 km/h 6.4 km/h 78% 0 mm 0.0 W/m2
02:24 19.1 °C 14.8 °C 1004.6 hPa SE 6.4 km/h 11.3 km/h 76% 0 mm 0.0 W/m2
02:30 19.2 °C 14.2 °C 1004.6 hPa SSE 7.9 km/h 16.1 km/h 73% 0 mm 0.0 W/m2
02:35 19.2 °C 14.9 °C 1004.3 hPa Calm   4.8 km/h 76% 0 mm 0.0 W/m2
02:40 18.9 °C 14.8 °C 1004.3 hPa Calm   6.4 km/h 77% 0 mm 0.0 W/m2
02:45 18.7 °C 15 °C 1004.6 hPa Calm   4.8 km/h 79% 0.25 mm 0.0 W/m2
02:50 18.5 °C 15.4 °C 1004.6 hPa SE 1.4 km/h 4.8 km/h 82% 0.25 mm 0.0 W/m2
02:55 18.2 °C 15.3 °C 1004.6 hPa SE 4.7 km/h 8 km/h 83% 0.51 mm 0.0 W/m2
03:00 17.9 °C 15.2 °C 1004.6 hPa SSE 6.4 km/h 12.9 km/h 84% 0.51 mm 0.0 W/m2
03:05 17.6 °C 14.9 °C 1004.6 hPa ESE 3.2 km/h 11.3 km/h 84% 0.51 mm 0.0 W/m2
03:10 17.4 °C 14.7 °C 1004.6 hPa SE 6.4 km/h 9.7 km/h 84% 0.51 mm 0.0 W/m2
03:16 17.3 °C 14.8 °C 1004.6 hPa East 1.4 km/h 3.2 km/h 85% 0.51 mm 0.0 W/m2
03:21 17.2 °C 14.8 °C 1004.6 hPa SE 3.2 km/h 3.2 km/h 86% 0.51 mm 0.0 W/m2
03:26 17.2 °C 14.8 °C 1004.6 hPa SSE 4.7 km/h 6.4 km/h 86% 0.51 mm 0.0 W/m2
03:31 17.2 °C 14.8 °C 1004.6 hPa SE 6.4 km/h 11.3 km/h 86% 0.51 mm 0.0 W/m2
03:36 17.3 °C 15.1 °C 1004.3 hPa ESE 1.4 km/h 8 km/h 87% 0.76 mm 0.0 W/m2
03:41 17.2 °C 15.2 °C 1004.6 hPa ESE 4.7 km/h 11.3 km/h 88% 0.76 mm 0.0 W/m2
03:46 17.3 °C 15.3 °C 1004.6 hPa SE 11.1 km/h 11.3 km/h 88% 0.51 mm 0.0 W/m2
03:51 17.4 °C 15.4 °C 1004.6 hPa ESE 6.4 km/h 9.7 km/h 88% 0.51 mm 0.0 W/m2
03:56 17.5 °C 15.5 °C 1005 hPa SSE 1.4 km/h 8 km/h 88% 0.51 mm 0.0 W/m2
04:02 17.6 °C 15.8 °C 1005 hPa SE 1.4 km/h 4.8 km/h 89% 0.51 mm 0.0 W/m2
04:07 17.5 °C 15.7 °C 1005 hPa Calm   1.6 km/h 89% 0.76 mm 0.0 W/m2
04:12 17.4 °C 15.6 °C 1005.3 hPa Calm   1.6 km/h 89% 0.76 mm 0.0 W/m2
04:17 17.4 °C 15.6 °C 1005.3 hPa Calm     89% 0.76 mm 0.0 W/m2
04:22 17.4 °C 15.7 °C 1005.3 hPa NE 1.4 km/h 1.6 km/h 90% 1.02 mm 0.0 W/m2
04:27 17.4 °C 15.9 °C 1005.3 hPa NNE 3.2 km/h 4.8 km/h 91% 1.27 mm 0.0 W/m2
04:32 17.4 °C 15.9 °C 1005.3 hPa Calm   4.8 km/h 91% 1.52 mm 0.0 W/m2
04:37 17.4 °C 15.9 °C 1005 hPa ENE 3.2 km/h 3.2 km/h 91% 1.52 mm 0.0 W/m2
04:42 17.3 °C 15.8 °C 1005 hPa NE 1.4 km/h 6.4 km/h 91% 1.52 mm 0.0 W/m2
04:48 17.3 °C 15.8 °C 1005 hPa ENE 6.4 km/h 6.4 km/h 91% 2.03 mm 0.0 W/m2
04:53 17.2 °C 15.7 °C 1005.3 hPa NNE 6.4 km/h 6.4 km/h 91% 2.03 mm 0.0 W/m2
04:58 17.1 °C 15.6 °C 1005.3 hPa Calm   4.8 km/h 91% 2.29 mm 0.0 W/m2
05:03 17.1 °C 15.6 °C 1005.3 hPa Calm   8 km/h 91% 2.03 mm 0.0 W/m2
05:08 16.9 °C 15.2 °C 1005.3 hPa Calm   1.6 km/h 90% 2.29 mm 0.0 W/m2
05:13 16.8 °C 15.3 °C 1005.3 hPa Calm   3.2 km/h 91% 2.29 mm 0.0 W/m2
05:18 16.8 °C 15.5 °C 1005.3 hPa SE 3.2 km/h 3.2 km/h 92% 2.54 mm 0.0 W/m2
05:23 16.9 °C 15.6 °C 1005 hPa Calm   1.6 km/h 92% 2.29 mm 0.0 W/m2
05:28 16.9 °C 15.6 °C 1005.3 hPa ESE 1.4 km/h 3.2 km/h 92% 2.29 mm 0.0 W/m2
05:33 16.9 °C 15.6 °C 1005 hPa Calm     92% 2.29 mm 0.0 W/m2
05:39 16.9 °C 15.6 °C 1005 hPa ENE 1.4 km/h 3.2 km/h 92% 2.03 mm 0.0 W/m2
05:44 16.9 °C 15.8 °C 1005 hPa NE 1.4 km/h 3.2 km/h 93% 1.78 mm 0.0 W/m2
05:49 16.9 °C 15.6 °C 1005 hPa Calm     92% 1.78 mm 0.0 W/m2
05:54 16.8 °C 15.5 °C 1004.6 hPa Calm   1.6 km/h 92% 2.29 mm 0.0 W/m2
05:59 16.7 °C 15.4 °C 1004.6 hPa Calm     92% 2.29 mm 0.0 W/m2
06:04 16.7 °C 15.4 °C 1004.6 hPa Calm     92% 2.29 mm 0.0 W/m2
06:09 16.7 °C 15.4 °C 1004.6 hPa Calm     92% 2.03 mm 0.0 W/m2
06:14 16.7 °C 15.4 °C 1004.6 hPa Calm   3.2 km/h 92% 1.78 mm 0.0 W/m2
06:20 16.7 °C 15.6 °C 1004.6 hPa Calm   3.2 km/h 93% 1.52 mm 0.0 W/m2
06:25 16.7 °C 15.6 °C 1004.6 hPa Calm   3.2 km/h 93% 1.52 mm 0.0 W/m2
06:30 16.7 °C 15.6 °C 1005 hPa Calm   4.8 km/h 93% 1.52 mm 0.0 W/m2
06:35 16.7 °C 15.6 °C 1005 hPa Calm   3.2 km/h 93% 1.27 mm 0.0 W/m2
06:40 16.7 °C 15.6 °C 1005 hPa Calm   6.4 km/h 93% 1.27 mm 0.0 W/m2
06:45 16.7 °C 15.6 °C 1005 hPa Calm   3.2 km/h 93% 1.27 mm 0.0 W/m2
06:50 16.7 °C 15.6 °C 1005 hPa Calm     93% 0.76 mm 0.0 W/m2
06:56 16.6 °C 15.5 °C 1005 hPa North 1.4 km/h 4.8 km/h 93% 0.51 mm 0.0 W/m2
07:01 16.6 °C 15.5 °C 1005 hPa NE 6.4 km/h 8 km/h 93% 0.25 mm 0.0 W/m2
07:06 16.4 °C 15.1 °C 1005.3 hPa NNE 3.2 km/h 6.4 km/h 92% 0 mm 5.0 W/m2
07:11 16.2 °C 14.7 °C 1005.6 hPa Calm   3.2 km/h 91% 0 mm 5.0 W/m2
07:16 16.2 °C 14.7 °C 1005.6 hPa Calm     91% 0 mm 5.0 W/m2
07:21 16.2 °C 14.9 °C 1005.6 hPa Calm   1.6 km/h 92% 0 mm 5.0 W/m2
07:26 16.2 °C 14.9 °C 1005.6 hPa North 1.4 km/h 4.8 km/h 92% 0 mm 9.0 W/m2
07:31 16.3 °C 15.2 °C 1005.6 hPa Calm     93% 0 mm 14.0 W/m2
07:37 16.3 °C 15.2 °C 1006 hPa Calm     93% 0 mm 21.0 W/m2
07:42 16.3 °C 15.2 °C 1006 hPa Calm     93% 0 mm 28.0 W/m2
07:47 16.4 °C 15.3 °C 1006 hPa Calm   1.6 km/h 93% 0 mm 35.0 W/m2
07:52 16.4 °C 15.3 °C 1006 hPa Calm     93% 0 mm 47.0 W/m2
07:57 16.5 °C 15.4 °C 1006 hPa Calm     93% 0 mm 54.0 W/m2
08:02 16.6 °C 15.5 °C 1006 hPa Calm     93% 0 mm 67.0 W/m2
08:07 16.6 °C 15.5 °C 1005.6 hPa Calm   1.6 km/h 93% 0 mm 72.0 W/m2
08:12 16.7 °C 15.6 °C 1006 hPa Calm     93% 0 mm 74.0 W/m2
08:18 16.7 °C 15.4 °C 1006 hPa Calm     92% 0 mm 72.0 W/m2
08:23 16.8 °C 15.7 °C 1006 hPa Calm   1.6 km/h 93% 0 mm 83.0 W/m2
08:28 16.9 °C 15.4 °C 1006 hPa Calm   3.2 km/h 91% 0 mm 107.0 W/m2
08:33 16.9 °C 15.4 °C 1006 hPa Calm   3.2 km/h 91% 0 mm 125.0 W/m2
08:38 16.9 °C 15.1 °C 1006 hPa Calm     89% 0 mm 144.0 W/m2
08:43 16.9 °C 15.1 °C 1006 hPa Calm     89% 0 mm 134.0 W/m2
08:48 17.1 °C 15.3 °C 1006 hPa Calm   1.6 km/h 89% 0 mm 179.0 W/m2
08:53 17.2 °C 15 °C 1006 hPa Calm   1.6 km/h 87% 0 mm 195.0 W/m2
08:58 17.3 °C 15.3 °C 1006 hPa SSE 1.4 km/h 3.2 km/h 88% 0 mm 156.0 W/m2
09:04 17.4 °C 15.4 °C 1006 hPa SSE 1.4 km/h 3.2 km/h 88% 0 mm 146.0 W/m2
09:09 17.6 °C 15.4 °C 1006 hPa Calm   1.6 km/h 87% 0 mm 135.0 W/m2
09:14 17.7 °C 15.3 °C 1006 hPa SSE 1.4 km/h 4.8 km/h 86% 0 mm 137.0 W/m2
09:19 17.7 °C 15.3 °C 1006 hPa Calm     86% 0 mm 141.0 W/m2
09:24 17.8 °C 15.2 °C 1006 hPa SSE 1.4 km/h 6.4 km/h 85% 0 mm 153.0 W/m2
09:29 17.9 °C 15.5 °C 1006 hPa Calm   3.2 km/h 86% 0 mm 174.0 W/m2
09:34 18.1 °C 15.7 °C 1006.3 hPa Calm   4.8 km/h 86% 0 mm 183.0 W/m2
09:39 18.2 °C 16 °C 1006.3 hPa Calm   1.6 km/h 87% 0 mm 197.0 W/m2
09:44 18.3 °C 15.9 °C 1006 hPa Calm   1.6 km/h 86% 0 mm 220.0 W/m2
09:49 18.5 °C 16.3 °C 1006 hPa SSE 1.4 km/h 3.2 km/h 87% 0 mm 248.0 W/m2
09:55 18.7 °C 16.1 °C 1006 hPa Calm   4.8 km/h 85% 0 mm 278.0 W/m2
10:00 18.9 °C 16.1 °C 1006 hPa Calm   4.8 km/h 84% 0 mm 276.0 W/m2
10:05 19.1 °C 16 °C 1006 hPa Calm   3.2 km/h 82% 0 mm 267.0 W/m2
10:10 19.3 °C 15.6 °C 1006 hPa Calm   4.8 km/h 79% 0 mm 269.0 W/m2
10:15 19.5 °C 15.2 °C 1006 hPa SSE 1.4 km/h 9.7 km/h 76% 0 mm 297.0 W/m2
10:20 19.8 °C 15.4 °C 1006 hPa Calm   6.4 km/h 76% 0 mm 327.0 W/m2
10:25 20.1 °C 14.9 °C 1006 hPa East 1.4 km/h 12.9 km/h 72% 0 mm 350.0 W/m2
10:30 20.4 °C 14.7 °C 1006 hPa Calm   8 km/h 70% 0 mm 360.0 W/m2
10:35 20.8 °C 14.9 °C 1006 hPa East 3.2 km/h 9.7 km/h 69% 0 mm 341.0 W/m2
10:41 21.2 °C 15.3 °C 1006 hPa Calm   11.3 km/h 69% 0 mm 316.0 W/m2
10:46 21.5 °C 15.1 °C 1006 hPa NE 3.2 km/h 6.4 km/h 67% 0 mm 301.0 W/m2
10:51 21.8 °C 15.6 °C 1006 hPa SE 1.4 km/h 4.8 km/h 68% 0 mm 316.0 W/m2
10:56 22.1 °C 15.9 °C 1006 hPa ESE 1.4 km/h 8 km/h 68% 0 mm 345.0 W/m2
11:01 22.3 °C 15.4 °C 1006 hPa ENE 6.4 km/h 12.9 km/h 65% 0 mm 374.0 W/m2
11:06 22.5 °C 15.3 °C 1006 hPa NE 3.2 km/h 11.3 km/h 64% 0 mm 446.0 W/m2
11:11 22.8 °C 15.4 °C 1006 hPa ENE 1.4 km/h 11.3 km/h 63% 0 mm 540.0 W/m2
11:16 23.2 °C 16 °C 1006 hPa ENE 1.4 km/h 3.2 km/h 64% 0 mm 656.0 W/m2
11:21 23.6 °C 15.1 °C 1005.6 hPa NE 3.2 km/h 6.4 km/h 59% 0 mm 779.0 W/m2
11:27 24.1 °C 15 °C 1005.6 hPa NE 1.4 km/h 3.2 km/h 57% 0 mm 1332.0 W/m2
11:32 24.7 °C 14.8 °C 1005.6 hPa NNE 1.4 km/h 6.4 km/h 54% 0 mm 540.0 W/m2
11:37 25.2 °C 14 °C 1005.6 hPa Calm   9.7 km/h 50% 0 mm 608.0 W/m2
11:42 25.7 °C 13.2 °C 1005.6 hPa Calm   6.4 km/h 46% 0 mm 675.0 W/m2
11:47 26.1 °C 13.9 °C 1005.6 hPa SSE 1.4 km/h 9.7 km/h 47% 0 mm 1257.0 W/m2
11:52 26.5 °C 13.3 °C 1005.6 hPa SSE 3.2 km/h 8 km/h 44% 0 mm 534.0 W/m2
11:57 26.7 °C 13.4 °C 1005.6 hPa SSW 1.4 km/h 3.2 km/h 44% 0 mm 719.0 W/m2
12:02 26.7 °C 12.7 °C 1005.3 hPa North 4.7 km/h 6.4 km/h 42% 0 mm 679.0 W/m2
12:07 26.9 °C 13.6 °C 1005.3 hPa SE 3.2 km/h 4.8 km/h 44% 0 mm 663.0 W/m2
12:13 26.9 °C 12.9 °C 1005.3 hPa Calm   1.6 km/h 42% 0 mm 613.0 W/m2
12:18 26.9 °C 12.5 °C 1005.3 hPa WSW 1.4 km/h 3.2 km/h 41% 0 mm 717.0 W/m2
12:23 27.1 °C 12.7 °C 1005 hPa WNW 1.4 km/h 4.8 km/h 41% 0 mm 622.0 W/m2
12:28 27.2 °C 12 °C 1005 hPa NW 3.2 km/h 6.4 km/h 39% 0 mm 874.0 W/m2
12:33 27.3 °C 12.9 °C 1005 hPa SW 3.2 km/h 3.2 km/h 41% 0 mm 953.0 W/m2
12:38 27.4 °C 13 °C 1005 hPa WSW 3.2 km/h 4.8 km/h 41% 0 mm 904.0 W/m2
12:43 27.7 °C 12.1 °C 1004.6 hPa NW 1.4 km/h 8 km/h 38% 0 mm 889.0 W/m2
12:48 27.9 °C 12.3 °C 1004.6 hPa NE 1.4 km/h 4.8 km/h 38% 0 mm 1327.0 W/m2
12:53 28.2 °C 12.9 °C 1004.6 hPa WSW 6.4 km/h 8 km/h 39% 0 mm 1317.0 W/m2
12:58 28.6 °C 12.5 °C 1004.3 hPa West 13 km/h 13 km/h 37% 0 mm 1320.0 W/m2
13:04 28.3 °C 11.8 °C 1004.3 hPa WSW 1.4 km/h 9.7 km/h 36% 0 mm 1239.0 W/m2
13:09 28 °C 12.4 °C 1004.3 hPa West 3.2 km/h 12.9 km/h 38% 0 mm 1276.0 W/m2
13:14 27.9 °C 12.7 °C 1004.3 hPa Calm   8 km/h 39% 0 mm 1288.0 W/m2
13:19 28.2 °C 12.9 °C 1004.3 hPa NNW 6.4 km/h 6.4 km/h 39% 0 mm 933.0 W/m2
13:24 28.4 °C 11.9 °C 1004.3 hPa Calm   4.8 km/h 36% 0 mm 603.0 W/m2
13:29 28.7 °C 12.6 °C 1004.3 hPa West 1.4 km/h 8 km/h 37% 0 mm 601.0 W/m2
13:34 28.7 °C 12.2 °C 1004.3 hPa NE 1.4 km/h 6.4 km/h 36% 0 mm 515.0 W/m2
13:39 28.7 °C 12.6 °C 1003.9 hPa NW 3.2 km/h 4.8 km/h 37% 0 mm 499.0 W/m2
13:45 28.6 °C 12.5 °C 1003.9 hPa SE 3.2 km/h 6.4 km/h 37% 0 mm 445.0 W/m2
13:50 28.3 °C 12.6 °C 1003.9 hPa West 1.4 km/h 4.8 km/h 38% 0 mm 538.0 W/m2
13:55 27.9 °C 12.3 °C 1003.9 hPa Calm   6.4 km/h 38% 0 mm 533.0 W/m2
14:00 27.8 °C 12.2 °C 1003.6 hPa WSW 4.7 km/h 11.3 km/h 38% 0 mm 452.0 W/m2
14:05 27.6 °C 12.4 °C 1003.6 hPa Calm   3.2 km/h 39% 0 mm 666.0 W/m2
14:10 27.6 °C 12.4 °C 1003.6 hPa West 1.4 km/h 12.9 km/h 39% 0 mm 737.0 W/m2
14:15 27.8 °C 12.2 °C 1003.6 hPa Calm   3.2 km/h 38% 0 mm 617.0 W/m2
14:20 28.1 °C 12.8 °C 1003.6 hPa West 7.9 km/h 16.1 km/h 39% 0 mm 1143.0 W/m2
14:25 28.2 °C 12.9 °C 1003.6 hPa West 1.4 km/h 9.7 km/h 39% 0 mm 1223.0 W/m2
14:30 28.5 °C 12.4 °C 1003.3 hPa SW 4.7 km/h 9.7 km/h 37% 0 mm 1035.0 W/m2
14:36 28.5 °C 12.4 °C 1003.6 hPa SSW 7.9 km/h 14.5 km/h 37% 0 mm 719.0 W/m2
14:41 28.5 °C 13.6 °C 1003.6 hPa North 4.7 km/h 9.7 km/h 40% 0 mm 599.0 W/m2
14:46 28.7 °C 13.4 °C 1003.6 hPa Calm   6.4 km/h 39% 0 mm 306.0 W/m2
14:51 28.6 °C 12.9 °C 1003.6 hPa NW 4.7 km/h 11.3 km/h 38% 0 mm 264.0 W/m2
14:56 28.2 °C 12.9 °C 1003.6 hPa SW 6.4 km/h 8 km/h 39% 0 mm 221.0 W/m2
15:01 27.8 °C 13 °C 1003.9 hPa ENE 6.4 km/h 11.3 km/h 40% 0 mm 167.0 W/m2
15:06 26.7 °C 14.1 °C 1003.9 hPa ENE 16.3 km/h 29 km/h 46% 0 mm 141.0 W/m2
15:11 25.2 °C 14.6 °C 1004.3 hPa East 3.2 km/h 14.5 km/h 52% 0 mm 195.0 W/m2
15:16 24.4 °C 15.1 °C 1003.9 hPa ENE 6.4 km/h 16.1 km/h 56% 0 mm 241.0 W/m2
15:21 24.1 °C 14.8 °C 1003.9 hPa NE 14.3 km/h 24.1 km/h 56% 0 mm 838.0 W/m2
15:27 23.9 °C 14.9 °C 1003.9 hPa ESE 9.7 km/h 19.3 km/h 57% 0 mm 276.0 W/m2
15:32 23.9 °C 15.1 °C 1003.9 hPa East 1.4 km/h 20.9 km/h 58% 0 mm 230.0 W/m2
15:37 23.8 °C 14.8 °C 1003.9 hPa ESE 11.1 km/h 19.3 km/h 57% 0 mm 204.0 W/m2
15:42 23.6 °C 14.3 °C 1003.9 hPa NE 11.1 km/h 20.9 km/h 56% 0 mm 171.0 W/m2
15:47 23.2 °C 14.2 °C 1003.9 hPa ENE 14.3 km/h 14.5 km/h 57% 0 mm 149.0 W/m2
15:52 23.1 °C 14.1 °C 1003.6 hPa ENE 7.9 km/h 19.3 km/h 57% 0 mm 165.0 W/m2
15:57 23.1 °C 14.4 °C 1003.6 hPa ENE 14.3 km/h 19.3 km/h 58% 0 mm 199.0 W/m2
16:02 23.1 °C 14.6 °C 1003.9 hPa NE 13 km/h 19.3 km/h 59% 0 mm 322.0 W/m2
16:07 23.2 °C 13.9 °C 1003.9 hPa ENE 13 km/h 20.9 km/h 56% 0 mm 380.0 W/m2
16:13 23.3 °C 14 °C 1003.9 hPa NNE 13 km/h 19.3 km/h 56% 0 mm 376.0 W/m2
16:18 23.3 °C 14.3 °C 1003.9 hPa ENE 13 km/h 16.1 km/h 57% 0 mm 169.0 W/m2
16:23 23.3 °C 14.6 °C 1003.9 hPa NE 13 km/h 16.1 km/h 58% 0 mm 114.0 W/m2
16:28 23.2 °C 14.2 °C 1003.6 hPa NE 9.7 km/h 12.9 km/h 57% 0 mm 100.0 W/m2
16:33 23.2 °C 13.9 °C 1003.6 hPa East 6.4 km/h 22.5 km/h 56% 0 mm 111.0 W/m2
16:38 23 °C 13.7 °C 1003.6 hPa ENE 6.4 km/h 17.7 km/h 56% 0 mm 130.0 W/m2
16:43 22.8 °C 13.6 °C 1003.6 hPa NE 6.4 km/h 16.1 km/h 56% 0 mm 88.0 W/m2
16:49 22.7 °C 13.5 °C 1003.9 hPa ENE 7.9 km/h 11.3 km/h 56% 0 mm 77.0 W/m2
16:54 22.5 °C 13.6 °C 1004.3 hPa SE 9.7 km/h 9.7 km/h 57% 0 mm 60.0 W/m2
16:59 22.3 °C 13.6 °C 1004.6 hPa SSE 13 km/h 14.5 km/h 58% 0 mm 46.0 W/m2
17:05 22 °C 13.6 °C 1004.6 hPa SSE 7.9 km/h 14.5 km/h 59% 0 mm 40.0 W/m2
17:10 21.9 °C 14.5 °C 1004.6 hPa SSW 3.2 km/h 14.5 km/h 63% 0 mm 33.0 W/m2
17:15 21.9 °C 15 °C 1004.6 hPa NE 1.4 km/h 14.5 km/h 65% 0 mm 18.0 W/m2
17:20 21.7 °C 14.1 °C 1004.6 hPa SSW 4.7 km/h 11.3 km/h 62% 0 mm 7.0 W/m2
17:25 21.3 °C 14.7 °C 1005 hPa SW 6.4 km/h 14.5 km/h 66% 0 mm 5.0 W/m2
17:30 20.4 °C 15.2 °C 1005 hPa SSW 3.2 km/h 9.7 km/h 72% 0.51 mm 5.0 W/m2
17:35 19.6 °C 14.8 °C 1004.6 hPa Calm     74% 1.27 mm 5.0 W/m2
17:40 19.2 °C 15.3 °C 1004.6 hPa Calm     78% 1.52 mm 5.0 W/m2
17:46 18.8 °C 15.3 °C 1004.6 hPa Calm     80% 1.78 mm 5.0 W/m2
17:51 18.5 °C 15.4 °C 1004.6 hPa North 3.2 km/h 4.8 km/h 82% 2.03 mm 5.0 W/m2
17:56 18.2 °C 14.9 °C 1004.6 hPa NNW 1.4 km/h 3.2 km/h 81% 2.29 mm 5.0 W/m2
18:01 17.9 °C 15.2 °C 1005 hPa Calm     84% 2.29 mm 5.0 W/m2
18:06 17.8 °C 15.4 °C 1005 hPa SSW 3.2 km/h 4.8 km/h 86% 2.29 mm 5.0 W/m2
18:11 17.7 °C 15.3 °C 1005.3 hPa Calm   8 km/h 86% 2.54 mm 5.0 W/m2
18:16 17.6 °C 15.4 °C 1005.3 hPa Calm   3.2 km/h 87% 2.79 mm 5.0 W/m2
18:21 17.5 °C 15.5 °C 1005.6 hPa Calm   1.6 km/h 88% 3.05 mm 0.0 W/m2
18:26 17.4 °C 15.4 °C 1005.6 hPa Calm     88% 3.05 mm 0.0 W/m2
18:31 17.4 °C 15.4 °C 1005.6 hPa Calm     88% 3.05 mm 0.0 W/m2
18:36 17.3 °C 15.5 °C 1005.6 hPa Calm   1.6 km/h 89% 2.29 mm 0.0 W/m2
18:41 17.4 °C 15.7 °C 1005.6 hPa Calm   3.2 km/h 90% 2.29 mm 0.0 W/m2
18:47 17.4 °C 15.9 °C 1005.6 hPa SSW 1.4 km/h 1.6 km/h 91% 2.29 mm 0.0 W/m2
18:52 17.4 °C 15.9 °C 1006 hPa SW 1.4 km/h 4.8 km/h 91% 2.54 mm 0.0 W/m2
18:57 17.5 °C 16 °C 1006.3 hPa SSW 3.2 km/h 8 km/h 91% 2.54 mm 0.0 W/m2
19:03 17.4 °C 15.9 °C 1006.3 hPa SW 3.2 km/h 6.4 km/h 91% 3.05 mm 0.0 W/m2
19:08 17.4 °C 15.9 °C 1006.3 hPa SSW 1.4 km/h 8 km/h 91% 3.56 mm 0.0 W/m2
19:13 17.3 °C 15.6 °C 1006.3 hPa WSW 4.7 km/h 6.4 km/h 90% 3.81 mm 0.0 W/m2
19:19 17.2 °C 15.7 °C 1006 hPa WSW 4.7 km/h 8 km/h 91% 3.81 mm 0.0 W/m2
19:24 17.1 °C 15.4 °C 1005.6 hPa SW 7.9 km/h 8 km/h 90% 3.56 mm 0.0 W/m2
19:29 16.9 °C 15.2 °C 1005.6 hPa West 4.7 km/h 16.1 km/h 90% 3.56 mm 0.0 W/m2
19:34 16.8 °C 15.3 °C 1005.3 hPa WSW 3.2 km/h 9.7 km/h 91% 3.3 mm 0.0 W/m2
19:39 16.7 °C 15.2 °C 1005.3 hPa Calm   8 km/h 91% 3.3 mm 0.0 W/m2
19:44 16.7 °C 15.2 °C 1005.6 hPa SW 3.2 km/h 8 km/h 91% 3.3 mm 0.0 W/m2
19:49 16.7 °C 15.2 °C 1005.3 hPa Calm   8 km/h 91% 3.05 mm 0.0 W/m2
19:54 16.7 °C 15.4 °C 1005 hPa Calm   3.2 km/h 92% 3.05 mm 0.0 W/m2
20:00 16.7 °C 15.4 °C 1005 hPa South 7.9 km/h 9.7 km/h 92% 2.79 mm 0.0 W/m2
20:05 16.7 °C 15.4 °C 1005.3 hPa SSE 4.7 km/h 8 km/h 92% 2.79 mm 0.0 W/m2
20:10 16.6 °C 15.1 °C 1005 hPa NNW 4.7 km/h 8 km/h 91% 2.03 mm 0.0 W/m2
20:15 16.4 °C 14.9 °C 1005 hPa Calm   4.8 km/h 91% 1.78 mm 0.0 W/m2
20:20 16.5 °C 15.2 °C 1005 hPa Calm   4.8 km/h 92% 1.52 mm 0.0 W/m2
20:25 16.4 °C 15.1 °C 1005.3 hPa Calm   1.6 km/h 92% 1.52 mm 0.0 W/m2
20:30 16.4 °C 15.1 °C 1005 hPa Calm   1.6 km/h 92% 1.52 mm 0.0 W/m2
20:35 16.4 °C 15.1 °C 1004.6 hPa Calm     92% 1.52 mm 0.0 W/m2
20:40 16.4 °C 15.1 °C 1005 hPa Calm   4.8 km/h 92% 1.52 mm 0.0 W/m2
20:45 16.4 °C 15.1 °C 1005 hPa Calm     92% 1.27 mm 0.0 W/m2
20:50 16.4 °C 15.1 °C 1005 hPa Calm     92% 0.76 mm 0.0 W/m2
20:55 16.4 °C 15.1 °C 1005 hPa Calm     92% 0.76 mm 0.0 W/m2
21:00 16.4 °C 15.3 °C 1005 hPa NE 1.4 km/h 4.8 km/h 93% 0.51 mm 0.0 W/m2
21:06 16.4 °C 15.3 °C 1005 hPa Calm   4.8 km/h 93% 0.25 mm 0.0 W/m2
21:11 16.3 °C 15 °C 1005.3 hPa NNE 3.2 km/h 3.2 km/h 92% 0.25 mm 0.0 W/m2
21:16 16.3 °C 15 °C 1005.3 hPa Calm   6.4 km/h 92% 0.25 mm 0.0 W/m2
21:21 16.3 °C 15 °C 1005.3 hPa ENE 1.4 km/h 4.8 km/h 92% 0.25 mm 0.0 W/m2
21:26 16.3 °C 15.2 °C 1005.3 hPa NE 4.7 km/h 6.4 km/h 93% 0.25 mm 0.0 W/m2
21:31 16.3 °C 15.2 °C 1005.6 hPa NE 4.7 km/h 4.8 km/h 93% 0.25 mm 0.0 W/m2
21:36 16.3 °C 15.2 °C 1005.6 hPa Calm   8 km/h 93% 0.25 mm 0.0 W/m2
21:41 16.3 °C 15.2 °C 1005.6 hPa Calm   4.8 km/h 93% 0.25 mm 0.0 W/m2
21:47 16.3 °C 15.2 °C 1005.6 hPa Calm   4.8 km/h 93% 0.25 mm 0.0 W/m2
21:52 16.3 °C 15.2 °C 1005.6 hPa ENE 1.4 km/h 4.8 km/h 93% 0.25 mm 0.0 W/m2
21:57 16.2 °C 15.1 °C 1005.6 hPa Calm   3.2 km/h 93% 0 mm 0.0 W/m2
22:02 16.2 °C 15.1 °C 1005.6 hPa Calm   3.2 km/h 93% 0 mm 0.0 W/m2
22:07 16.2 °C 15.1 °C 1006 hPa Calm   3.2 km/h 93% 0 mm 0.0 W/m2
22:12 16.2 °C 15.1 °C 1006 hPa Calm   3.2 km/h 93% 0 mm 0.0 W/m2
22:17 16.2 °C 15.1 °C 1006 hPa Calm   4.8 km/h 93% 0 mm 0.0 W/m2
22:22 16.2 °C 15.1 °C 1006 hPa Calm   3.2 km/h 93% 0 mm 0.0 W/m2
22:28 16.1 °C 15 °C 1006 hPa Calm     93% 0 mm 0.0 W/m2
22:33 16.1 °C 15 °C 1006.3 hPa Calm     93% 0 mm 0.0 W/m2
22:38 16 °C 14.9 °C 1006.3 hPa Calm     93% 0 mm 0.0 W/m2
22:44 16 °C 14.9 °C 1006.3 hPa Calm     93% 0 mm 0.0 W/m2
22:50 15.9 °C 14.8 °C 1006.3 hPa Calm     93% 0 mm 0.0 W/m2
22:55 15.9 °C 14.8 °C 1006.3 hPa Calm     93% 0 mm 0.0 W/m2
23:00 15.9 °C 14.8 °C 1006.3 hPa Calm     93% 0 mm 0.0 W/m2
23:05 15.9 °C 14.8 °C 1006.3 hPa Calm     93% 0 mm 0.0 W/m2
23:10 15.9 °C 14.8 °C 1006.3 hPa Calm   1.6 km/h 93% 0 mm 0.0 W/m2
23:16 15.9 °C 14.8 °C 1006.3 hPa Calm     93% 0 mm 0.0 W/m2
23:21 15.9 °C 14.8 °C 1006.3 hPa Calm     93% 0 mm 0.0 W/m2
23:26 15.9 °C 14.8 °C 1006.7 hPa Calm   3.2 km/h 93% 0 mm 0.0 W/m2
23:31 15.9 °C 14.8 °C 1006.7 hPa Calm     93% 0 mm 0.0 W/m2
23:36 15.9 °C 14.8 °C 1006.3 hPa Calm     93% 0 mm 0.0 W/m2
23:42 15.9 °C 14.8 °C 1006.7 hPa Calm     93% 0 mm 0.0 W/m2
23:47 15.9 °C 14.8 °C 1006.3 hPa Calm   1.6 km/h 93% 0 mm 0.0 W/m2
23:52 15.9 °C 14.8 °C 1006.3 hPa Calm   3.2 km/h 93% 0 mm 0.0 W/m2
23:57 15.9 °C 14.8 °C 1006.3 hPa Calm     93% 0 mm 0.0 W/m2
Olympia, Windhoek, Namibia
Compliments of Weather Underground - 3.25 mb